Terminal Aerodrome Forecast
Issued by NWS

Home | Current Version | Previous Version | Text Only | Print | Product List | Glossary On
Versions: 1 2 3 4 5 6 7 8 9 10 11 12
000
FTUS45 KRIW 292300
TAFRKS
TAF
KRKS 292339Z 3000/3024 05015G22KT 5SM SHRA SCT008 OVC030
      TEMPO 3001/3005 BKN008
     FM301200 06015G25KT P6SM VCSH SCT025 BKN040
     FM301900 06012G20KT P6SM VCTS SCT030 BKN050CB=

USA.gov is the U.S. government's official web portal to all federal, state and local government web resources and services.